Connexion S'enregistrer

Connexion à votre compte

Identifiant
Mot de passe
Maintenir la connexion active sur ce site

Créer un compte

Pour valider ce formulaire, vous devez remplir tous les champs.
Nom
Identifiant
Mot de passe
Répétez le mot de passe
Adresse e-mail
Répétez l'adresse e-mail

METAR/TAF de Chambéry

[source: ADDS]
METAR
LFLB 201830Z AUTO 20015G28KT 170V230 9999 ///TCU 25/08 Q1008 TEMPO 20025G44KT RA BKN014 =
TAF LFLB 201100Z 2012/2112 18004KT CAVOK TEMPO 2018/2021 22015G25KT PROB40 TEMPO 2018/2021 20025G44KT TEMPO 2020/2112 RA BKN014 PROB40 TEMPO 2021/2112 3000 TSRA BKN014 BKN030CB
TAF
TAF LFLB 201100Z 2012/2112 18004KT CAVOK TEMPO 2018/2021 22015G25KT PROB40 TEMPO 2018/2021 20025G44KT TEMPO 2020/2112 RA BKN014 PROB40 TEMPO 2021/2112 3000 TSRA BKN014 BKN030CB =
SR / SS: 05:59 / 16:43 UTC (Lever/Coucher du soleil le 2019-10-20)

 

Webcam de l'Aéroclub - Parking Lima et SW (réactualisation : 5min)

Cliquer ici pour une animation sur les 3 dernières heures / Cliquer sur l'image pour l'agrandir dans une nouvelle fenêtre

 

Webcam de l'Aéroclub - Manche à air et WA (réactualisation : 5min)

Cliquer ici pour une animation sur les 3 dernières heures / Cliquer sur l'image pour l'agrandir dans une nouvelle fenêtre

 

JSN Boot template designed by JoomlaShine.com